PWSweather.com
Personal Weather Stations
Station Observations

OlomoucCZ

Lat: 49.5936202181, Lon: 17.2276005149

Elevation: 752

Station Type: Davis Vantage Pro 2 Activ

http://infopocasi-olomouc.cz

High Low Average
Temperature 38.2°F3.4°C 28.1°F-2.2°C 32.8°F0.4°C
Dew Point 35.3°F1.8°C 27.3°F-2.6°C 30.8°F-0.7°C
Winds 10.4 mph 16.7 kmh Calm Calm 4.0 mph S6.4 kmh S
Wind Gusts 13.8 mph22.2 kmh -- 6.0 mph9.7 kmh
Humidity 99% 81% 92%
Pressure 29.66 in1004.4 mb 29.37 in994.6 mb -
Precipitation 0.00 in0.0 mm - -
Hour Temp Dew Point Humidity Winds Wind Gusts Pressure Precip Precip Rate Daily Precip Total
12:00 AM 28.3°F-2.1°C 27.3°F-2.6°C 96% 1.2 mph NW1.9 kmh NW 2.3 mph3.7 kmh 29.66 in1004.4 mb - 0.00 in0.0 mm 0.00 in0.0 mm
12:30 AM 28.4°F-2.0°C 27.4°F-2.6°C 96% Calm Calm 2.3 mph3.7 kmh 29.65 in1004.1 mb - 0.00 in0.0 mm 0.00 in0.0 mm
01:00 AM 28.2°F-2.1°C 27.5°F-2.5°C 97% 1.2 mph NW1.9 kmh NW 1.2 mph1.9 kmh 29.64 in1003.7 mb - 0.00 in0.0 mm 0.00 in0.0 mm
01:30 AM 28.3°F-2.1°C 27.6°F-2.4°C 97% 1.2 mph NW1.9 kmh NW 2.3 mph3.7 kmh 29.64 in1003.7 mb - 0.00 in0.0 mm 0.00 in0.0 mm
02:00 AM 28.1°F-2.2°C 27.4°F-2.6°C 97% 1.2 mph NW1.9 kmh NW 2.3 mph3.7 kmh 29.64 in1003.7 mb - 0.00 in0.0 mm 0.00 in0.0 mm
02:30 AM 28.2°F-2.1°C 27.7°F-2.4°C 98% Calm Calm 1.2 mph1.9 kmh 29.63 in1003.4 mb - 0.00 in0.0 mm 0.00 in0.0 mm
03:00 AM 28.5°F-1.9°C 28.0°F-2.2°C 98% Calm Calm 1.2 mph1.9 kmh 29.61 in1002.7 mb - 0.00 in0.0 mm 0.00 in0.0 mm
03:30 AM 28.7°F-1.8°C 28.2°F-2.1°C 98% Calm Calm 1.2 mph1.9 kmh 29.61 in1002.7 mb - 0.00 in0.0 mm 0.00 in0.0 mm
04:00 AM 28.9°F-1.7°C 28.4°F-2.0°C 98% 1.2 mph NW1.9 kmh NW 1.2 mph1.9 kmh 29.59 in1002.0 mb - 0.00 in0.0 mm 0.00 in0.0 mm
04:30 AM 28.8°F-1.8°C 28.3°F-2.1°C 98% Calm Calm 1.2 mph1.9 kmh 29.58 in1001.7 mb - 0.00 in0.0 mm 0.00 in0.0 mm
05:00 AM 29.2°F-1.6°C 28.7°F-1.8°C 98% 1.2 mph NNW1.9 kmh NNW 2.3 mph3.7 kmh 29.57 in1001.4 mb - 0.00 in0.0 mm 0.00 in0.0 mm
05:30 AM 29.1°F-1.6°C 28.6°F-1.9°C 98% Calm Calm -- 29.56 in1001.0 mb - 0.00 in0.0 mm 0.00 in0.0 mm
06:00 AM 29.3°F-1.5°C 28.8°F-1.8°C 98% 1.2 mph SE1.9 kmh SE 3.5 mph5.6 kmh 29.55 in1000.7 mb - 0.00 in0.0 mm 0.00 in0.0 mm
06:30 AM 30.4°F-0.9°C 30.2°F-1.0°C 99% 3.5 mph SSE5.6 kmh SSE 4.6 mph7.4 kmh 29.54 in1000.3 mb - 0.00 in0.0 mm 0.00 in0.0 mm
07:00 AM 30.8°F-0.7°C 30.4°F-0.9°C 98% 4.6 mph E7.4 kmh E 6.9 mph11.1 kmh 29.53 in1000.0 mb - 0.00 in0.0 mm 0.00 in0.0 mm
07:30 AM 31.9°F-0.1°C 31.7°F-0.2°C 99% 5.8 mph E9.3 kmh E 9.2 mph14.8 kmh 29.52 in999.7 mb - 0.00 in0.0 mm 0.00 in0.0 mm
08:00 AM 33.3°F0.7°C 33.0°F0.6°C 99% 9.2 mph ESE14.8 kmh ESE 11.5 mph18.5 kmh 29.52 in999.7 mb - 0.00 in0.0 mm 0.00 in0.0 mm
08:30 AM 34.0°F1.1°C 33.7°F0.9°C 99% 8.1 mph SE13.0 kmh SE 11.5 mph18.5 kmh 29.51 in999.3 mb - 0.00 in0.0 mm 0.00 in0.0 mm
09:00 AM 34.6°F1.4°C 34.3°F1.3°C 99% 8.1 mph ESE13.0 kmh ESE 11.5 mph18.5 kmh 29.51 in999.3 mb - 0.00 in0.0 mm 0.00 in0.0 mm
09:30 AM 35.0°F1.7°C 34.5°F1.4°C 98% 8.1 mph ESE13.0 kmh ESE 10.4 mph16.7 kmh 29.50 in999.0 mb - 0.00 in0.0 mm 0.00 in0.0 mm
10:00 AM 35.0°F1.7°C 34.5°F1.4°C 98% 4.6 mph E7.4 kmh E 5.8 mph9.3 kmh 29.49 in998.6 mb - 0.00 in0.0 mm 0.00 in0.0 mm
10:30 AM 36.2°F2.3°C 35.2°F1.8°C 96% 6.9 mph E11.1 kmh E 9.2 mph14.8 kmh 29.50 in999.0 mb - 0.00 in0.0 mm 0.00 in0.0 mm
11:00 AM 36.0°F2.2°C 34.4°F1.3°C 94% 4.6 mph E7.4 kmh E 8.1 mph13.0 kmh 29.49 in998.6 mb - 0.00 in0.0 mm 0.00 in0.0 mm
11:30 AM 36.0°F2.2°C 34.2°F1.2°C 93% 6.9 mph ESE11.1 kmh ESE 10.4 mph16.7 kmh 29.47 in998.0 mb - 0.00 in0.0 mm 0.00 in0.0 mm
12:00 PM 36.0°F2.2°C 33.9°F1.1°C 92% 2.3 mph ENE3.7 kmh ENE 3.5 mph5.6 kmh 29.46 in997.6 mb - 0.00 in0.0 mm 0.00 in0.0 mm
12:30 PM 36.7°F2.6°C 34.3°F1.3°C 91% 2.3 mph E3.7 kmh E 3.5 mph5.6 kmh 29.45 in997.3 mb - 0.00 in0.0 mm 0.00 in0.0 mm
01:00 PM 37.7°F3.2°C 35.3°F1.8°C 91% 4.6 mph ESE7.4 kmh ESE 5.8 mph9.3 kmh 29.44 in997.0 mb - 0.00 in0.0 mm 0.00 in0.0 mm
01:30 PM 38.2°F3.4°C 32.9°F0.5°C 81% 9.2 mph ESE14.8 kmh ESE 11.5 mph18.5 kmh 29.42 in996.3 mb - 0.00 in0.0 mm 0.00 in0.0 mm
02:00 PM 37.1°F2.8°C 31.8°F-0.1°C 81% 6.9 mph E11.1 kmh E 13.8 mph22.2 kmh 29.42 in996.3 mb - 0.00 in0.0 mm 0.00 in0.0 mm
02:30 PM 36.6°F2.6°C 31.6°F-0.2°C 82% 8.1 mph SE13.0 kmh SE 9.2 mph14.8 kmh 29.41 in995.9 mb - 0.00 in0.0 mm 0.00 in0.0 mm
03:00 PM 36.4°F2.4°C 32.0°F0.0°C 84% 5.8 mph SE9.3 kmh SE 6.9 mph11.1 kmh 29.42 in996.3 mb - 0.00 in0.0 mm 0.00 in0.0 mm
03:30 PM 35.9°F2.2°C 31.2°F-0.4°C 83% 8.1 mph SE13.0 kmh SE 11.5 mph18.5 kmh 29.43 in996.6 mb - 0.00 in0.0 mm 0.00 in0.0 mm
04:00 PM 35.5°F1.9°C 31.1°F-0.5°C 84% 6.9 mph SE11.1 kmh SE 9.2 mph14.8 kmh 29.41 in995.9 mb - 0.00 in0.0 mm 0.00 in0.0 mm
04:30 PM 34.9°F1.6°C 30.8°F-0.7°C 85% 4.6 mph SE7.4 kmh SE 11.5 mph18.5 kmh 29.41 in995.9 mb - 0.00 in0.0 mm 0.00 in0.0 mm
05:00 PM 34.2°F1.2°C 29.9°F-1.2°C 84% 10.4 mph ESE16.7 kmh ESE 11.5 mph18.5 kmh 29.41 in995.9 mb - 0.00 in0.0 mm 0.00 in0.0 mm
06:00 PM 33.3°F0.7°C 29.8°F-1.2°C 87% 3.5 mph ESE5.6 kmh ESE 5.8 mph9.3 kmh 29.40 in995.6 mb - 0.00 in0.0 mm 0.00 in0.0 mm
06:30 PM 32.8°F0.4°C 29.6°F-1.3°C 88% 3.5 mph ESE5.6 kmh ESE 3.5 mph5.6 kmh 29.39 in995.3 mb - 0.00 in0.0 mm 0.00 in0.0 mm
07:00 PM 32.6°F0.3°C 29.7°F-1.3°C 89% 4.6 mph SE7.4 kmh SE 9.2 mph14.8 kmh 29.39 in995.3 mb - 0.00 in0.0 mm 0.00 in0.0 mm
07:30 PM 32.6°F0.3°C 29.7°F-1.3°C 89% 5.8 mph SE9.3 kmh SE 8.1 mph13.0 kmh 29.39 in995.3 mb - 0.00 in0.0 mm 0.00 in0.0 mm
08:00 PM 33.1°F0.6°C 30.2°F-1.0°C 89% 4.6 mph SE7.4 kmh SE 6.9 mph11.1 kmh 29.40 in995.6 mb - 0.00 in0.0 mm 0.00 in0.0 mm
08:30 PM 33.1°F0.6°C 30.2°F-1.0°C 89% 5.8 mph E9.3 kmh E 6.9 mph11.1 kmh 29.39 in995.3 mb - 0.00 in0.0 mm 0.00 in0.0 mm
09:00 PM 33.2°F0.7°C 30.3°F-0.9°C 89% 2.3 mph SE3.7 kmh SE 3.5 mph5.6 kmh 29.40 in995.6 mb - 0.00 in0.0 mm 0.00 in0.0 mm
09:30 PM 33.5°F0.8°C 30.6°F-0.8°C 89% 8.1 mph ESE13.0 kmh ESE 9.2 mph14.8 kmh 29.38 in994.9 mb - 0.00 in0.0 mm 0.00 in0.0 mm
10:00 PM 33.7°F0.9°C 30.5°F-0.8°C 88% 2.3 mph E3.7 kmh E 2.3 mph3.7 kmh 29.38 in994.9 mb - 0.00 in0.0 mm 0.00 in0.0 mm
10:30 PM 32.8°F0.4°C 30.2°F-1.0°C 90% 1.2 mph ESE1.9 kmh ESE 3.5 mph5.6 kmh 29.37 in994.6 mb - 0.00 in0.0 mm 0.00 in0.0 mm
11:00 PM 32.9°F0.5°C 30.5°F-0.8°C 91% 1.2 mph SE1.9 kmh SE 3.5 mph5.6 kmh 29.38 in994.9 mb - 0.00 in0.0 mm 0.00 in0.0 mm
11:30 PM 31.6°F-0.2°C 29.6°F-1.3°C 92% 1.2 mph NE1.9 kmh NE 2.3 mph3.7 kmh 29.37 in994.6 mb - 0.00 in0.0 mm 0.00 in0.0 mm